Time;durP1;ratioP1;P1;durP2;ratioP2;P2;SDS_P1;SDS_P2;PMS_P1;PMS_P2;Temp;Humidity;BMP_temperature;BMP_pressure;BME280_temperature;BME280_humidity;BME280_pressure;Samples;Min_cycle;Max_cycle;Signal;HPM_P1;HPM_P2
2021/07/11 00:01:47;;;;;;;6.30;5.55;;;18.30;99.90;;;;;;4917996;29;20692;-89
2021/07/11 00:04:13;;;;;;;7.00;4.47;;;18.20;99.90;;;;;;4920802;29;20195;-89
2021/07/11 00:06:38;;;;;;;5.25;4.75;;;18.20;99.90;;;;;;4921969;29;20187;-85
2021/07/11 00:09:06;;;;;;;5.80;5.07;;;18.20;99.90;;;;;;4922358;29;20187;-89
2021/07/11 00:11:32;;;;;;;8.73;4.75;;;18.20;99.90;;;;;;4939054;29;20187;-89
2021/07/11 00:14:02;;;;;;;6.10;5.50;;;18.10;99.90;;;;;;4938685;29;20637;-88
2021/07/11 00:16:29;;;;;;;5.95;4.68;;;18.10;99.90;;;;;;4922612;29;20257;-88
2021/07/11 00:18:55;;;;;;;5.30;4.80;;;18.10;99.90;;;;;;4938613;29;20187;-89
2021/07/11 00:21:20;;;;;;;5.90;5.03;;;18.00;99.90;;;;;;4938915;29;20263;-88
2021/07/11 00:23:46;;;;;;;6.65;4.47;;;18.00;99.90;;;;;;4938538;29;20527;-89
2021/07/11 00:26:12;;;;;;;6.18;4.75;;;18.00;99.90;;;;;;4905860;29;20221;-89
2021/07/11 00:28:37;;;;;;;4.82;4.38;;;18.00;99.90;;;;;;4938460;29;20227;-89
2021/07/11 00:31:03;;;;;;;4.50;4.10;;;17.90;99.90;;;;;;4938142;29;20211;-89
2021/07/11 00:33:29;;;;;;;5.38;4.88;;;17.90;99.90;;;;;;4921284;29;20188;-89
2021/07/11 00:35:56;;;;;;;8.55;4.95;;;17.90;99.90;;;;;;4938296;29;20203;-88
2021/07/11 00:38:21;;;;;;;8.73;4.93;;;17.90;99.90;;;;;;4938402;29;20188;-89
2021/07/11 00:40:47;;;;;;;4.85;4.45;;;17.80;99.90;;;;;;4921093;29;20657;-89
2021/07/11 00:43:13;;;;;;;8.27;4.93;;;17.80;99.90;;;;;;4938530;29;20223;-89
2021/07/11 00:45:39;;;;;;;5.78;5.05;;;17.80;99.90;;;;;;4938066;29;20238;-88
2021/07/11 00:48:05;;;;;;;6.53;4.43;;;17.80;99.90;;;;;;4920827;29;20267;-89
2021/07/11 00:50:31;;;;;;;9.38;5.15;;;17.80;99.90;;;;;;4938484;29;20280;-88
2021/07/11 00:52:57;;;;;;;6.10;5.50;;;17.80;99.90;;;;;;4938280;29;20215;-89
2021/07/11 00:55:23;;;;;;;9.07;4.90;;;17.80;99.90;;;;;;4938256;29;20598;-88
2021/07/11 00:57:50;;;;;;;7.72;5.45;;;17.80;99.90;;;;;;4937821;29;20235;-88
2021/07/11 01:00:17;;;;;;;6.10;5.50;;;17.80;99.90;;;;;;4938229;29;20180;-89
2021/07/11 01:03:00;;;;;;;6.10;5.18;;;17.80;99.90;;;;;;4938111;29;20211;-89
2021/07/11 01:05:26;;;;;;;9.48;5.60;;;17.70;99.90;;;;;;4938164;29;20195;-88
2021/07/11 01:08:13;;;;;;;6.10;5.18;;;17.70;99.90;;;;;;4920775;29;20180;-89
2021/07/11 01:10:43;;;;;;;5.80;5.25;;;17.70;99.90;;;;;;4938074;29;20168;-89
2021/07/11 01:13:12;;;;;;;8.10;5.93;;;17.70;99.90;;;;;;4937652;29;20180;-89
2021/07/11 01:15:39;;;;;;;12.57;5.18;;;17.60;99.90;;;;;;4936866;29;20259;-89
2021/07/11 01:18:08;;;;;;;7.75;5.40;;;17.70;99.90;;;;;;4937293;29;20180;-89
2021/07/11 01:20:39;;;;;;;8.88;6.25;;;17.60;99.90;;;;;;4937713;29;20199;-90
2021/07/11 01:23:12;;;;;;;5.50;5.00;;;17.60;99.90;;;;;;4920326;29;20339;-88
2021/07/11 01:25:44;;;;;;;5.88;5.30;;;17.60;99.90;;;;;;4937862;29;20176;-88
2021/07/11 01:28:20;;;;;;;8.13;5.80;;;17.60;99.90;;;;;;4920349;29;20184;-88
2021/07/11 01:30:48;;;;;;;5.60;5.10;;;17.60;99.90;;;;;;4937700;29;20180;-88
2021/07/11 01:33:16;;;;;;;6.05;5.28;;;17.60;99.90;;;;;;4937249;29;20184;-88
2021/07/11 01:35:44;;;;;;;5.18;4.78;;;17.60;99.90;;;;;;4937526;29;20186;-89
2021/07/11 01:38:10;;;;;;;6.85;5.32;;;17.60;99.90;;;;;;4920271;29;20291;-89
2021/07/11 01:40:37;;;;;;;7.78;5.03;;;17.60;99.90;;;;;;4920607;29;20191;-89
2021/07/11 01:43:03;;;;;;;5.13;4.72;;;17.60;99.90;;;;;;4919943;29;20223;-89
2021/07/11 01:45:31;;;;;;;5.75;5.15;;;17.60;99.90;;;;;;4920391;29;20220;-89
2021/07/11 01:47:57;;;;;;;5.63;5.13;;;17.60;99.90;;;;;;4937020;29;20250;-89
2021/07/11 01:50:24;;;;;;;9.27;4.93;;;17.60;99.90;;;;;;4937303;29;20318;-88
2021/07/11 01:52:52;;;;;;;8.90;5.47;;;17.70;99.90;;;;;;4920149;29;20180;-89
2021/07/11 01:55:18;;;;;;;8.98;5.72;;;17.70;99.90;;;;;;4937183;29;20211;-88
2021/07/11 01:57:44;;;;;;;5.88;5.28;;;17.70;99.90;;;;;;4920071;29;20180;-89
2021/07/11 02:00:12;;;;;;;7.43;5.05;;;17.70;99.90;;;;;;4919699;29;20203;-89
2021/07/11 02:02:38;;;;;;;6.90;5.05;;;17.70;99.90;;;;;;4936819;29;20218;-89
2021/07/11 02:05:11;;;;;;;5.32;4.82;;;17.70;99.90;;;;;;4936493;29;20293;-89
2021/07/11 02:07:37;;;;;;;6.43;5.20;;;17.70;99.90;;;;;;4937063;29;20156;-89
2021/07/11 02:10:08;;;;;;;7.13;4.82;;;17.70;99.90;;;;;;4936569;29;20640;-89
2021/07/11 02:12:39;;;;;;;9.15;4.82;;;17.70;99.90;;;;;;4936892;29;20540;-89
2021/07/11 02:15:07;;;;;;;5.30;4.80;;;17.70;99.90;;;;;;4936545;29;20226;-89
2021/07/11 02:17:37;;;;;;;5.35;4.85;;;17.70;99.90;;;;;;4936425;29;20176;-89
2021/07/11 02:20:06;;;;;;;10.52;5.22;;;17.60;99.90;;;;;;4919352;29;20186;-89
2021/07/11 02:22:33;;;;;;;5.15;4.68;;;17.70;99.90;;;;;;4919384;29;20565;-89
2021/07/11 02:25:00;;;;;;;6.65;4.57;;;17.70;99.90;;;;;;4936620;29;20183;-89
2021/07/11 02:27:25;;;;;;;6.07;5.15;;;17.70;99.90;;;;;;4936631;29;20176;-88
2021/07/11 02:29:55;;;;;;;5.90;5.30;;;17.60;99.90;;;;;;4919711;29;20184;-89
2021/07/11 02:32:23;;;;;;;6.13;5.53;;;17.60;99.90;;;;;;4904914;29;20176;-89
2021/07/11 02:34:49;;;;;;;8.48;5.43;;;17.60;99.90;;;;;;4926281;29;20188;-86
2021/07/11 02:37:18;;;;;;;6.70;5.05;;;17.50;99.90;;;;;;4919484;29;20537;-89
2021/07/11 02:39:48;;;;;;;7.47;5.13;;;17.50;99.90;;;;;;4936437;29;20203;-89
2021/07/11 02:42:16;;;;;;;6.20;5.60;;;17.50;99.90;;;;;;4935753;29;20207;-89
2021/07/11 02:44:48;;;;;;;7.13;5.70;;;17.50;99.90;;;;;;4919246;29;20194;-89
2021/07/11 02:47:17;;;;;;;6.30;5.63;;;17.40;99.90;;;;;;4918960;29;20608;-92
2021/07/11 02:49:47;;;;;;;6.22;5.63;;;17.40;99.90;;;;;;4918755;29;20235;-88
2021/07/11 02:52:14;;;;;;;6.60;5.63;;;17.40;99.90;;;;;;4935851;29;20231;-88
2021/07/11 02:54:45;;;;;;;7.55;5.07;;;17.40;99.90;;;;;;4935936;29;20215;-88
2021/07/11 02:57:14;;;;;;;7.65;6.13;;;17.40;99.90;;;;;;4918877;29;20172;-88
2021/07/11 02:59:41;;;;;;;6.85;6.05;;;17.40;99.90;;;;;;4936480;29;20184;-88
2021/07/11 03:02:08;;;;;;;7.40;6.25;;;17.40;99.90;;;;;;4935436;29;20298;-89
2021/07/11 03:04:39;;;;;;;6.60;5.57;;;17.40;99.90;;;;;;4918993;29;20202;-89
2021/07/11 03:07:06;;;;;;;7.43;5.60;;;17.40;99.90;;;;;;4935899;29;20303;-89
2021/07/11 03:09:32;;;;;;;6.60;6.00;;;17.40;99.90;;;;;;4919201;29;20184;-89
2021/07/11 03:11:59;;;;;;;8.20;5.70;;;17.40;99.90;;;;;;4936119;29;20190;-91
2021/07/11 03:14:26;;;;;;;7.50;5.70;;;17.40;99.90;;;;;;4918649;29;20184;-88
2021/07/11 03:16:57;;;;;;;9.98;5.63;;;17.40;99.90;;;;;;4918942;29;20191;-87
2021/07/11 03:19:26;;;;;;;6.95;6.18;;;17.40;99.90;;;;;;4918619;29;20942;-88
2021/07/11 03:21:53;;;;;;;7.63;6.13;;;17.50;99.90;;;;;;4918729;29;20212;-89
2021/07/11 03:24:24;;;;;;;7.20;5.72;;;17.50;99.90;;;;;;4935521;29;20187;-89
2021/07/11 03:26:55;;;;;;;9.38;6.40;;;17.50;99.90;;;;;;4935906;29;20179;-89
2021/07/11 03:29:53;;;;;;;6.75;6.03;;;17.50;99.90;;;;;;4935524;29;20633;-88
2021/07/11 03:32:21;;;;;;;7.10;5.80;;;17.50;99.90;;;;;;4935289;29;20533;-88
2021/07/11 03:34:48;;;;;;;5.60;5.10;;;17.60;99.90;;;;;;4935825;29;20637;-88
2021/07/11 03:37:14;;;;;;;15.73;5.75;;;17.60;99.90;;;;;;4935804;29;20188;-89
2021/07/11 03:39:44;;;;;;;12.18;6.38;;;17.60;99.90;;;;;;4922141;29;20254;-88
2021/07/11 03:42:11;;;;;;;6.85;6.22;;;17.60;99.90;;;;;;4939247;29;20627;-90
2021/07/11 03:44:38;;;;;;;11.48;6.07;;;17.70;99.90;;;;;;4939386;29;20192;-90
2021/07/11 03:47:06;;;;;;;6.97;5.72;;;17.80;99.90;;;;;;4939380;29;20672;-91
2021/07/11 03:49:32;;;;;;;7.28;5.50;;;17.90;99.90;;;;;;4922284;29;20322;-90
2021/07/11 03:52:04;;;;;;;6.90;5.22;;;18.00;99.90;;;;;;4939480;29;20662;-90
2021/07/11 03:54:35;;;;;;;6.35;5.55;;;18.00;99.90;;;;;;4939210;29;20175;-90
2021/07/11 03:57:01;;;;;;;7.88;6.15;;;18.00;99.90;;;;;;4939455;29;20175;-90
2021/07/11 03:59:28;;;;;;;7.10;5.63;;;18.10;99.90;;;;;;4939010;29;20188;-89
2021/07/11 04:01:55;;;;;;;6.88;5.78;;;18.00;99.90;;;;;;4939207;29;20246;-89
2021/07/11 04:04:22;;;;;;;8.15;5.95;;;18.10;99.90;;;;;;4921916;29;20191;-89
2021/07/11 04:06:49;;;;;;;6.10;5.47;;;18.20;99.90;;;;;;4939236;29;20192;-89
2021/07/11 04:09:21;;;;;;;6.50;5.32;;;18.20;99.90;;;;;;4939056;29;20195;-89
2021/07/11 04:11:47;;;;;;;6.35;5.75;;;18.20;99.90;;;;;;4939063;29;20180;-90
2021/07/11 04:14:17;;;;;;;5.93;5.32;;;18.20;99.90;;;;;;4938763;29;20234;-90
2021/07/11 04:16:47;;;;;;;8.85;6.05;;;18.20;99.90;;;;;;4939077;29;20199;-89
2021/07/11 04:19:21;;;;;;;9.63;5.30;;;18.20;99.90;;;;;;4938627;29;20207;-89
2021/07/11 04:21:49;;;;;;;6.20;5.50;;;18.20;99.90;;;;;;4939037;29;20227;-91
2021/07/11 04:24:15;;;;;;;14.07;5.80;;;18.30;99.90;;;;;;4938606;29;20180;-88
2021/07/11 04:26:43;;;;;;;7.57;6.43;;;18.30;99.90;;;;;;4921662;29;20247;-89
2021/07/11 04:29:10;;;;;;;9.82;5.55;;;18.20;99.90;;;;;;4938756;29;20239;-92
2021/07/11 04:31:35;;;;;;;7.22;5.47;;;18.20;99.90;;;;;;4921637;29;20184;-90
2021/07/11 04:34:30;;;;;;;8.40;5.28;;;18.20;99.90;;;;;;4921489;29;20543;-89
2021/07/11 04:37:00;;;;;;;9.70;4.95;;;18.20;99.90;;;;;;4938807;29;20168;-89
2021/07/11 04:39:26;;;;;;;5.70;5.20;;;18.30;99.90;;;;;;4938045;29;20630;-89
2021/07/11 04:41:52;;;;;;;9.50;4.53;;;18.30;99.90;;;;;;4938146;29;20678;-89
2021/07/11 04:44:18;;;;;;;5.43;4.80;;;18.30;99.90;;;;;;4938289;29;20305;-89
2021/07/11 04:46:44;;;;;;;8.73;5.05;;;18.30;99.90;;;;;;4938831;29;20266;-89
2021/07/11 04:49:10;;;;;;;8.10;4.68;;;18.40;99.90;;;;;;4920994;29;20213;-89
2021/07/11 04:51:36;;;;;;;6.68;5.32;;;18.50;99.90;;;;;;4937450;29;20247;-88
2021/07/11 04:54:07;;;;;;;7.75;4.95;;;18.60;99.90;;;;;;4938403;29;20180;-88
2021/07/11 04:56:34;;;;;;;10.15;4.57;;;18.60;99.90;;;;;;4920912;29;20188;-88
2021/07/11 04:58:59;;;;;;;6.25;5.15;;;18.60;99.90;;;;;;4938230;29;20705;-88
2021/07/11 05:01:25;;;;;;;6.28;4.70;;;18.60;99.90;;;;;;4937751;29;20295;-88
2021/07/11 05:03:52;;;;;;;5.30;4.82;;;18.60;99.90;;;;;;4938236;29;20187;-89
2021/07/11 05:06:18;;;;;;;6.30;5.30;;;18.60;99.90;;;;;;4937598;29;20239;-88
2021/07/11 05:08:44;;;;;;;5.85;5.28;;;18.60;99.90;;;;;;4938372;29;20179;-89
2021/07/11 05:11:10;;;;;;;7.75;5.05;;;18.60;99.90;;;;;;4937988;29;20708;-88
2021/07/11 05:13:36;;;;;;;5.63;5.05;;;18.60;99.90;;;;;;4937585;29;20235;-89
2021/07/11 05:16:02;;;;;;;7.70;6.43;;;18.70;99.90;;;;;;4937765;29;20180;-89
2021/07/11 05:18:27;;;;;;;16.02;12.27;;;18.70;99.90;;;;;;4937056;29;20653;-89
2021/07/11 05:20:53;;;;;;;12.75;8.27;;;18.70;99.90;;;;;;4920302;29;20634;-91
2021/07/11 05:23:18;;;;;;;8.70;7.53;;;18.70;99.90;;;;;;4919840;29;20685;-90
2021/07/11 05:25:44;;;;;;;10.70;5.30;;;18.70;99.90;;;;;;4904342;29;20258;-89
2021/07/11 05:28:10;;;;;;;6.57;5.93;;;18.70;99.90;;;;;;4936901;29;20703;-89
2021/07/11 05:30:36;;;;;;;7.90;5.65;;;18.80;99.90;;;;;;4936943;29;20757;-88
2021/07/11 05:33:02;;;;;;;9.20;5.80;;;18.90;99.90;;;;;;4920034;29;20335;-89
2021/07/11 05:35:28;;;;;;;11.23;6.05;;;19.00;99.90;;;;;;4903582;29;20554;-88
2021/07/11 05:37:54;;;;;;;5.90;5.30;;;19.00;99.90;;;;;;4937042;29;20196;-89
2021/07/11 05:40:20;;;;;;;8.30;5.07;;;19.10;99.90;;;;;;4936633;29;20176;-86
2021/07/11 05:42:46;;;;;;;6.05;5.45;;;19.10;99.90;;;;;;4936903;29;20212;-89
2021/07/11 05:45:13;;;;;;;9.73;5.43;;;19.10;99.90;;;;;;4919712;29;20786;-89
2021/07/11 05:47:39;;;;;;;10.57;5.97;;;19.10;99.90;;;;;;4919640;29;20191;-89
2021/07/11 05:50:06;;;;;;;8.20;5.40;;;19.10;99.90;;;;;;4920059;29;20232;-89
2021/07/11 05:52:32;;;;;;;6.07;5.47;;;19.30;99.90;;;;;;4919679;29;20243;-89
2021/07/11 05:54:58;;;;;;;7.25;5.78;;;19.50;99.90;;;;;;4936963;29;20188;-89
2021/07/11 05:57:24;;;;;;;6.03;5.43;;;19.50;99.90;;;;;;4936806;29;20541;-87
2021/07/11 05:59:49;;;;;;;10.60;5.63;;;19.50;99.90;;;;;;4937150;29;20186;-88
2021/07/11 06:02:15;;;;;;;7.25;5.45;;;19.70;99.90;;;;;;4936719;29;20603;-87
2021/07/11 06:04:41;;;;;;;8.15;6.07;;;19.80;99.90;;;;;;4936757;29;20610;-86
2021/07/11 06:07:07;;;;;;;6.15;5.63;;;19.90;99.90;;;;;;4937027;29;20180;-86
2021/07/11 06:09:32;;;;;;;7.63;5.38;;;20.00;99.90;;;;;;4919637;29;20271;-87
2021/07/11 06:11:58;;;;;;;6.70;5.57;;;20.10;99.90;;;;;;4919902;29;20645;-87
2021/07/11 06:14:23;;;;;;;7.25;5.60;;;20.10;99.90;;;;;;4919182;29;20195;-85
2021/07/11 06:16:49;;;;;;;5.65;5.15;;;20.20;99.90;;;;;;4903769;29;20512;-88
2021/07/11 06:19:15;;;;;;;6.30;5.70;;;20.30;99.90;;;;;;4919670;29;20188;-89
2021/07/11 06:21:42;;;;;;;7.13;5.78;;;20.40;99.90;;;;;;4936283;29;20267;-88
2021/07/11 06:24:08;;;;;;;11.18;5.78;;;20.50;99.90;;;;;;4936357;29;20203;-88
2021/07/11 06:26:34;;;;;;;6.13;4.70;;;20.70;99.90;;;;;;4935973;29;20184;-88
2021/07/11 06:29:00;;;;;;;10.07;5.40;;;20.80;99.90;;;;;;4936518;29;20689;-87
2021/07/11 06:31:26;;;;;;;10.65;4.72;;;20.90;99.90;;;;;;4903228;29;20183;-88
2021/07/11 06:33:51;;;;;;;9.25;5.00;;;21.10;99.90;;;;;;4933049;29;20172;-87
2021/07/11 06:36:17;;;;;;;5.68;5.07;;;21.20;99.90;;;;;;4918353;29;20195;-87
2021/07/11 06:38:43;;;;;;;5.68;5.07;;;21.20;99.90;;;;;;4935448;29;20212;-86
2021/07/11 06:41:08;;;;;;;7.57;5.60;;;21.30;99.90;;;;;;4918705;29;20187;-87
2021/07/11 06:43:34;;;;;;;7.05;5.00;;;21.40;99.90;;;;;;4918276;29;20188;-87
2021/07/11 06:46:00;;;;;;;5.00;4.20;;;21.50;99.90;;;;;;4918222;29;20196;-86
2021/07/11 06:48:25;;;;;;;5.30;4.15;;;21.60;99.90;;;;;;4935567;29;20538;-88
2021/07/11 06:50:51;;;;;;;5.57;4.40;;;21.70;99.90;;;;;;4914856;29;20710;-87
2021/07/11 06:53:17;;;;;;;4.00;3.55;;;21.80;99.90;;;;;;4915667;29;20199;-86
2021/07/11 06:55:43;;;;;;;4.32;3.92;;;21.90;99.90;;;;;;4916001;29;20185;-87
2021/07/11 06:58:08;;;;;;;5.18;4.00;;;22.00;99.90;;;;;;4915253;29;20192;-87
2021/07/11 07:00:34;;;;;;;6.57;3.80;;;22.10;99.90;;;;;;4916173;29;20189;-88
2021/07/11 07:03:00;;;;;;;4.18;3.80;;;22.20;99.90;;;;;;4915273;29;20231;-88
2021/07/11 07:05:26;;;;;;;3.88;3.40;;;22.30;99.90;;;;;;4915217;29;20634;-87
2021/07/11 07:07:52;;;;;;;5.95;3.83;;;22.40;99.90;;;;;;4914448;29;20263;-87
2021/07/11 07:10:19;;;;;;;7.43;5.07;;;22.60;99.90;;;;;;4913964;29;20181;-87
2021/07/11 07:12:45;;;;;;;4.32;3.92;;;22.70;99.90;;;;;;4912830;29;20240;-86
2021/07/11 07:15:13;;;;;;;6.57;3.88;;;22.90;99.90;;;;;;4914998;29;20199;-87
2021/07/11 07:17:39;;;;;;;3.72;3.22;;;23.00;99.90;;;;;;4914845;29;20641;-87
2021/07/11 07:20:07;;;;;;;3.83;3.42;;;23.10;99.90;;;;;;4915380;29;20271;-87
2021/07/11 07:22:33;;;;;;;4.07;3.08;;;23.10;99.90;;;;;;4914055;29;20568;-85
2021/07/11 07:24:59;;;;;;;7.72;3.85;;;23.20;99.90;;;;;;4915614;29;20645;-89
2021/07/11 07:27:25;;;;;;;5.88;3.65;;;23.20;99.90;;;;;;4917195;29;20180;-90
2021/07/11 07:29:50;;;;;;;3.00;2.80;;;23.30;99.90;;;;;;4915378;29;20237;-89
2021/07/11 07:32:16;;;;;;;4.88;3.05;;;23.50;99.90;;;;;;4915912;29;20189;-89
2021/07/11 07:34:42;;;;;;;6.07;3.65;;;23.60;99.90;;;;;;4915196;29;20177;-88
2021/07/11 07:37:08;;;;;;;8.23;3.25;;;23.80;99.90;;;;;;4916727;29;20181;-88
2021/07/11 07:39:34;;;;;;;3.92;3.35;;;23.90;99.90;;;;;;4916993;29;20184;-87
2021/07/11 07:42:00;;;;;;;4.97;3.60;;;24.00;99.90;;;;;;4916037;29;20204;-89
2021/07/11 07:44:26;;;;;;;3.65;3.35;;;24.10;99.90;;;;;;4915533;29;20279;-88
2021/07/11 07:46:52;;;;;;;6.53;3.30;;;24.20;99.90;;;;;;4916145;29;20285;-88
2021/07/11 07:49:18;;;;;;;5.75;3.50;;;24.20;99.90;;;;;;4916936;29;20199;-87
2021/07/11 07:51:43;;;;;;;6.90;3.65;;;24.30;99.90;;;;;;4935395;29;20223;-88
2021/07/11 07:54:09;;;;;;;4.40;3.65;;;24.30;99.90;;;;;;4935659;29;20184;-89
2021/07/11 07:56:35;;;;;;;4.90;3.47;;;24.40;99.90;;;;;;4935528;29;20176;-88
2021/07/11 07:59:01;;;;;;;6.20;3.78;;;24.40;99.90;;;;;;4935038;29;20279;-88
2021/07/11 08:01:26;;;;;;;4.22;3.70;;;24.40;99.90;;;;;;4918887;29;20255;-87
2021/07/11 08:03:52;;;;;;;3.92;3.55;;;24.60;99.90;;;;;;4935245;29;20184;-88
2021/07/11 08:06:18;;;;;;;4.20;3.20;;;24.70;99.90;;;;;;4902975;29;20184;-91
2021/07/11 08:08:43;;;;;;;6.47;3.55;;;24.70;99.90;;;;;;4935177;29;20191;-88
2021/07/11 08:11:10;;;;;;;3.88;3.47;;;24.70;99.90;;;;;;4918574;29;20267;-85
2021/07/11 08:13:37;;;;;;;3.90;3.60;;;24.70;99.90;;;;;;4935691;29;20191;-87
2021/07/11 08:16:05;;;;;;;5.18;3.85;;;24.80;99.90;;;;;;4935148;29;20175;-88
2021/07/11 08:18:30;;;;;;;5.57;3.88;;;24.90;99.90;;;;;;4918672;29;20188;-88
2021/07/11 08:20:56;;;;;;;3.70;3.40;;;25.00;99.90;;;;;;4934757;29;20176;-88
2021/07/11 08:23:22;;;;;;;4.80;4.30;;;25.10;99.90;;;;;;4935235;29;20322;-87
2021/07/11 08:25:47;;;;;;;5.75;4.68;;;25.20;99.90;;;;;;4938047;29;20184;-90
2021/07/11 08:28:13;;;;;;;7.63;4.22;;;25.20;99.90;;;;;;4939011;29;20199;-88
2021/07/11 08:30:39;;;;;;;6.88;4.22;;;25.20;99.90;;;;;;4938737;29;20180;-89
2021/07/11 08:33:05;;;;;;;4.40;3.80;;;25.20;99.90;;;;;;4921345;29;20187;-90
2021/07/11 08:35:31;;;;;;;6.40;4.13;;;25.20;99.90;;;;;;4938502;29;20571;-91
2021/07/11 08:37:56;;;;;;;6.88;4.05;;;25.30;99.90;;;;;;4938352;29;20188;-89
2021/07/11 08:40:22;;;;;;;4.30;3.85;;;25.30;99.90;;;;;;4921810;29;20191;-89
2021/07/11 08:42:52;;;;;;;4.47;4.07;;;25.20;99.90;;;;;;4921287;29;20314;-89
2021/07/11 08:45:18;;;;;;;5.72;4.45;;;25.30;99.90;;;;;;4938396;29;20184;-89
2021/07/11 08:47:45;;;;;;;6.55;4.35;;;25.30;99.90;;;;;;4921044;29;20176;-85
2021/07/11 08:50:14;;;;;;;6.90;4.90;;;25.40;99.90;;;;;;4921358;29;20742;-89
2021/07/11 08:52:40;;;;;;;5.60;4.22;;;25.50;99.90;;;;;;4938163;29;20236;-89
2021/07/11 08:55:24;;;;;;;5.65;4.75;;;25.60;99.90;;;;;;4937782;29;20184;-85
2021/07/11 08:57:53;;;;;;;5.00;4.45;;;25.70;99.90;;;;;;4920638;29;20215;-88
2021/07/11 09:00:23;;;;;;;7.38;4.88;;;25.70;99.90;;;;;;4938604;29;20180;-89
2021/07/11 09:02:49;;;;;;;6.55;4.78;;;25.90;99.90;;;;;;4937934;29;20282;-89
2021/07/11 09:05:21;;;;;;;5.20;4.55;;;25.90;99.90;;;;;;4905382;29;20287;-88
2021/07/11 09:08:08;;;;;;;5.47;4.80;;;26.00;99.90;;;;;;4937901;29;20679;-85
2021/07/11 09:10:53;;;;;;;5.85;4.72;;;26.20;99.90;;;;;;4921219;29;20175;-88
2021/07/11 09:13:22;;;;;;;10.63;4.78;;;26.20;99.90;;;;;;4921265;29;20586;-87
2021/07/11 09:15:53;;;;;;;10.20;7.50;;;26.20;99.90;;;;;;4937949;29;20169;-86
2021/07/11 09:18:37;;;;;;;24.75;5.28;;;26.20;99.90;;;;;;4937899;29;20180;-87
2021/07/11 09:21:08;;;;;;;9.70;4.68;;;26.10;99.90;;;;;;4937784;29;20168;-87
2021/07/11 09:23:36;;;;;;;5.63;4.65;;;26.10;99.90;;;;;;4937769;29;20246;-88
2021/07/11 09:26:06;;;;;;;6.85;4.90;;;26.30;99.90;;;;;;4937186;29;20188;-87
2021/07/11 09:28:33;;;;;;;5.97;5.38;;;26.40;99.90;;;;;;4937767;29;20172;-90
2021/07/11 09:31:20;;;;;;;9.20;4.95;;;26.60;99.90;;;;;;4920239;29;20283;-87
2021/07/11 09:33:57;;;;;;;9.38;5.18;;;26.70;99.90;;;;;;4920777;29;20239;-87
2021/07/11 09:36:23;;;;;;;7.53;5.60;;;26.70;99.90;;;;;;4920118;29;20184;-88
2021/07/11 09:38:58;;;;;;;5.03;4.45;;;26.90;99.90;;;;;;4920570;29;20204;-87
2021/07/11 09:41:29;;;;;;;6.75;4.85;;;27.00;99.90;;;;;;4920626;29;20179;-88
2021/07/11 09:43:56;;;;;;;8.63;5.63;;;27.00;99.90;;;;;;4920225;29;20180;-87
2021/07/11 09:46:23;;;;;;;9.82;5.03;;;26.90;99.90;;;;;;4920530;29;20187;-87
2021/07/11 09:48:50;;;;;;;6.20;5.10;;;27.00;99.90;;;;;;4920572;29;20179;-86
2021/07/11 09:51:34;;;;;;;6.57;5.03;;;27.10;99.90;;;;;;4919871;29;20246;-88
2021/07/11 09:54:14;;;;;;;7.18;4.55;;;27.30;99.90;;;;;;4937011;29;20172;-86
2021/07/11 09:56:45;;;;;;;6.75;4.28;;;27.30;99.90;;;;;;4936960;29;20202;-86
2021/07/11 09:59:13;;;;;;;8.00;5.20;;;27.50;99.90;;;;;;4936630;29;20369;-85
2021/07/11 10:01:43;;;;;;;17.20;6.40;;;27.80;99.90;;;;;;4920107;29;20575;-87
2021/07/11 10:04:10;;;;;;;5.72;5.20;;;27.70;99.90;;;;;;4936566;29;20200;-87
2021/07/11 10:06:36;;;;;;;5.53;4.95;;;27.70;99.90;;;;;;4937299;29;20184;-86
2021/07/11 10:09:07;;;;;;;6.88;5.32;;;27.80;99.90;;;;;;4919134;29;20184;-90
2021/07/11 10:11:34;;;;;;;6.00;5.07;;;27.80;99.90;;;;;;4936704;29;20219;-89
2021/07/11 10:13:59;;;;;;;7.50;5.20;;;27.60;99.90;;;;;;4936894;29;20176;-90
2021/07/11 10:16:27;;;;;;;6.40;5.45;;;27.50;99.90;;;;;;4919729;29;20188;-88
2021/07/11 10:19:01;;;;;;;6.32;4.80;;;27.50;99.90;;;;;;4936752;29;20175;-88
2021/07/11 10:21:32;;;;;;;7.20;5.32;;;27.40;99.90;;;;;;4936752;29;20254;-88
2021/07/11 10:23:58;;;;;;;6.93;5.22;;;27.50;99.90;;;;;;4919324;29;20183;-87
2021/07/11 10:26:38;;;;;;;7.30;5.53;;;27.60;99.90;;;;;;4936756;29;20176;-88
2021/07/11 10:29:19;;;;;;;7.45;5.03;;;27.70;99.90;;;;;;4936416;29;20171;-88
2021/07/11 10:31:47;;;;;;;6.28;5.68;;;28.00;99.90;;;;;;4919716;29;20191;-91
2021/07/11 10:34:24;;;;;;;5.80;5.30;;;28.30;99.90;;;;;;4919174;29;20179;-90
2021/07/11 10:36:49;;;;;;;9.90;5.95;;;28.30;99.90;;;;;;4920978;29;20175;-88
2021/07/11 10:39:16;;;;;;;6.15;5.55;;;28.00;99.90;;;;;;4903233;29;20180;-88
2021/07/11 10:41:50;;;;;;;9.00;5.68;;;28.10;99.90;;;;;;4936363;29;20212;-89
2021/07/11 10:44:24;;;;;;;9.52;5.63;;;28.20;99.90;;;;;;4936427;29;20186;-89
2021/07/11 10:46:55;;;;;;;6.85;5.82;;;28.20;99.90;;;;;;4936189;29;20621;-88
2021/07/11 10:49:23;;;;;;;6.68;5.57;;;28.30;99.90;;;;;;4934824;29;20168;-88
2021/07/11 10:51:55;;;;;;;15.13;5.93;;;28.30;99.90;;;;;;4936404;29;20199;-88
2021/07/11 10:54:22;;;;;;;8.55;5.97;;;28.20;99.90;;;;;;4936224;29;20370;-88
2021/07/11 10:56:49;;;;;;;6.53;5.38;;;28.20;99.90;;;;;;4919053;29;20200;-90
2021/07/11 10:59:41;;;;;;;6.32;5.72;;;28.20;99.90;;;;;;4918882;29;20184;-91
2021/07/11 11:02:15;;;;;;;6.82;5.38;;;28.20;99.90;;;;;;4935816;29;20283;-89
2021/07/11 11:04:43;;;;;;;8.45;6.00;;;28.10;99.90;;;;;;4935802;29;20191;-91
2021/07/11 11:07:19;;;;;;;5.93;5.32;;;28.00;99.90;;;;;;4937582;29;20180;-90
2021/07/11 11:09:47;;;;;;;7.25;5.93;;;27.80;99.90;;;;;;4920025;29;20278;-91
2021/07/11 11:12:27;;;;;;;8.35;6.18;;;27.60;99.90;;;;;;4924149;29;20274;-93
2021/07/11 11:15:02;;;;;;;8.38;5.63;;;27.60;99.90;;;;;;4937471;29;20179;-92
2021/07/11 11:17:34;;;;;;;8.32;6.05;;;27.60;99.90;;;;;;4935665;29;20254;-92
2021/07/11 11:20:05;;;;;;;8.10;5.88;;;27.60;99.90;;;;;;4918864;29;20224;-89
2021/07/11 11:22:31;;;;;;;7.07;6.35;;;27.60;99.90;;;;;;4935845;29;20212;-89
2021/07/11 11:24:58;;;;;;;15.55;6.50;;;27.50;99.90;;;;;;4918889;29;20211;-88
2021/07/11 11:27:34;;;;;;;8.23;6.32;;;27.50;99.90;;;;;;4935548;29;20643;-87
2021/07/11 11:30:17;;;;;;;6.82;6.15;;;27.50;99.90;;;;;;4935884;29;20176;-88
2021/07/11 11:32:53;;;;;;;10.25;6.30;;;27.60;99.90;;;;;;4935900;29;20168;-88
2021/07/11 11:35:27;;;;;;;8.20;6.38;;;27.60;99.90;;;;;;4935524;29;20171;-87
2021/07/11 11:37:56;;;;;;;8.38;6.22;;;27.70;99.90;;;;;;4935948;29;20172;-87
2021/07/11 11:40:24;;;;;;;10.02;6.22;;;27.80;99.90;;;;;;4935364;29;20187;-88
2021/07/11 11:42:55;;;;;;;9.75;6.30;;;27.80;99.90;;;;;;4935338;29;20557;-88
2021/07/11 11:45:24;;;;;;;9.05;6.45;;;28.00;99.90;;;;;;4935453;29;20263;-88
2021/07/11 11:48:09;;;;;;;9.80;5.78;;;28.20;99.90;;;;;;4918957;29;20271;-88
2021/07/11 11:50:36;;;;;;;9.15;6.65;;;28.30;99.90;;;;;;4935774;29;20239;-87
2021/07/11 11:53:14;;;;;;;7.95;6.15;;;28.50;99.90;;;;;;4918307;29;20315;-88
2021/07/11 11:56:00;;;;;;;9.73;6.60;;;28.70;99.90;;;;;;4935411;29;20179;-87
2021/07/11 11:58:30;;;;;;;9.18;7.57;;;28.90;99.90;;;;;;4934519;29;20247;-88
2021/07/11 12:01:04;;;;;;;11.07;6.43;;;29.00;99.90;;;;;;4939286;29;20191;-87
2021/07/11 12:03:31;;;;;;;9.98;6.45;;;29.00;99.90;;;;;;4938566;29;20557;-88
2021/07/11 12:06:00;;;;;;;6.95;6.00;;;29.00;99.90;;;;;;4922564;29;20265;-87
2021/07/11 12:08:27;;;;;;;8.43;6.78;;;28.90;99.90;;;;;;4922129;29;20222;-88
2021/07/11 12:10:54;;;;;;;7.50;6.15;;;29.10;99.90;;;;;;4922126;29;20191;-88
2021/07/11 12:13:24;;;;;;;14.52;6.43;;;29.20;99.90;;;;;;4938803;29;20311;-88
2021/07/11 12:16:00;;;;;;;7.10;6.40;;;29.20;99.90;;;;;;4921907;29;20187;-87
2021/07/11 12:18:25;;;;;;;8.63;6.97;;;29.00;99.90;;;;;;4922977;29;20195;-87
2021/07/11 12:20:54;;;;;;;7.45;6.57;;;28.80;99.90;;;;;;4921786;29;20641;-87
2021/07/11 12:23:20;;;;;;;13.02;7.75;;;28.60;99.90;;;;;;4938537;29;20199;-87
2021/07/11 12:25:57;;;;;;;9.52;7.45;;;28.50;99.90;;;;;;4938891;29;20195;-88
2021/07/11 12:28:23;;;;;;;12.40;8.48;;;28.50;99.90;;;;;;4938441;29;20681;-88
2021/07/11 12:30:51;;;;;;;10.15;8.68;;;28.50;99.90;;;;;;4938775;29;20184;-88
2021/07/11 12:33:35;;;;;;;9.07;6.80;;;28.70;99.90;;;;;;4921633;29;20199;-88
2021/07/11 12:36:04;;;;;;;9.80;6.93;;;28.80;99.90;;;;;;4922043;29;20523;-90
2021/07/11 12:38:38;;;;;;;7.60;6.82;;;29.00;99.90;;;;;;4938692;29;20235;-91
2021/07/11 12:41:07;;;;;;;11.05;7.22;;;29.30;99.90;;;;;;4939053;29;20194;-94
2021/07/11 12:43:44;;;;;;;8.15;7.32;;;29.20;99.90;;;;;;4938988;29;20264;-94
2021/07/11 12:46:12;;;;;;;9.07;7.80;;;29.10;99.90;;;;;;4938777;29;20685;-91
2021/07/11 12:48:49;;;;;;;10.38;7.63;;;29.20;99.90;;;;;;4921686;29;20245;-92
2021/07/11 12:51:25;;;;;;;16.48;9.57;;;29.30;99.90;;;;;;4938997;29;20235;-94
2021/07/11 12:53:53;;;;;;;13.00;7.85;;;29.30;99.90;;;;;;4921166;29;20259;-92